createdAt,value
2023-04-12T00:00:48.407Z,1.10
2023-04-12T00:03:21.120Z,1.05
2023-04-12T00:05:54.808Z,0.90
2023-04-12T00:08:33.091Z,0.82
2023-04-12T00:11:00.795Z,0.88
2023-04-12T00:13:27.454Z,1.25
2023-04-12T00:15:53.956Z,1.10
2023-04-12T00:18:24.925Z,1.25
2023-04-12T00:20:52.513Z,1.88
2023-04-12T00:23:18.914Z,0.80
2023-04-12T00:25:45.512Z,0.95
2023-04-12T00:28:12.070Z,1.05
2023-04-12T00:30:38.594Z,1.25
2023-04-12T00:33:07.459Z,1.00
2023-04-12T00:35:33.969Z,1.08
2023-04-12T00:38:04.105Z,1.17
2023-04-12T00:40:30.708Z,1.10
2023-04-12T00:42:59.405Z,1.08
2023-04-12T00:45:26.021Z,1.45
2023-04-12T00:47:53.041Z,1.00
2023-04-12T00:50:21.257Z,1.08
2023-04-12T00:52:47.998Z,1.02
2023-04-12T00:55:15.967Z,1.23
2023-04-12T00:57:42.354Z,0.95
2023-04-12T01:00:17.168Z,1.20
2023-04-12T01:02:50.919Z,0.90
2023-04-12T01:05:23.575Z,1.52
2023-04-12T01:10:49.651Z,1.40
2023-04-12T01:13:46.706Z,1.35
2023-04-12T01:16:26.728Z,1.30
2023-04-12T01:18:58.040Z,1.58
2023-04-12T01:21:35.977Z,1.38
2023-04-12T01:24:36.155Z,1.00
2023-04-12T01:27:03.860Z,1.45
2023-04-12T01:29:31.644Z,0.93
2023-04-12T01:31:59.338Z,1.75
2023-04-12T01:34:28.911Z,1.10
2023-04-12T01:36:58.179Z,1.25
2023-04-12T01:39:25.100Z,1.02
2023-04-12T01:41:51.702Z,1.30
2023-04-12T01:44:18.903Z,0.90
2023-04-12T01:46:47.418Z,1.10
2023-04-12T01:49:15.612Z,1.05
2023-04-12T01:52:09.693Z,1.20
2023-04-12T01:54:40.636Z,1.05
2023-04-12T01:57:08.553Z,1.60
2023-04-12T01:59:42.025Z,1.58
2023-04-12T02:02:09.313Z,0.88
2023-04-12T02:04:37.392Z,1.23
2023-04-12T02:07:04.185Z,1.63
2023-04-12T02:09:30.696Z,1.02
2023-04-12T02:11:57.108Z,1.63
2023-04-12T02:14:23.505Z,1.40
2023-04-12T02:16:54.773Z,0.90
2023-04-12T02:19:27.249Z,1.30
2023-04-12T02:24:26.664Z,1.42
2023-04-12T02:29:21.742Z,1.30
2023-04-12T02:31:48.358Z,1.67
2023-04-12T02:34:17.917Z,1.48
2023-04-12T02:36:50.567Z,1.50
2023-04-12T02:39:22.105Z,1.48
2023-04-12T02:41:48.842Z,1.58
2023-04-12T02:44:19.950Z,1.10
2023-04-12T02:46:46.531Z,1.02
2023-04-12T02:49:12.962Z,1.10
2023-04-12T02:51:39.960Z,1.83
2023-04-12T02:54:08.656Z,1.42
2023-04-12T02:56:38.423Z,1.70
2023-04-12T02:59:04.817Z,1.33
2023-04-12T03:01:33.920Z,1.63
2023-04-12T03:04:02.124Z,2.13
2023-04-12T03:06:30.043Z,1.30
2023-04-12T03:08:57.639Z,1.33
2023-04-12T03:11:24.603Z,1.05
2023-04-12T03:13:50.950Z,1.40
2023-04-12T03:16:30.286Z,1.48
2023-04-12T03:19:02.066Z,1.70
2023-04-12T03:21:28.843Z,1.70
2023-04-12T03:23:55.486Z,1.30
2023-04-12T03:26:21.962Z,1.17
2023-04-12T03:28:50.800Z,1.50
2023-04-12T03:31:21.018Z,1.10
2023-04-12T03:33:47.506Z,1.15
2023-04-12T03:36:14.069Z,1.45
2023-04-12T03:38:40.467Z,1.27
2023-04-12T03:41:07.125Z,1.48
2023-04-12T03:43:37.418Z,1.42
2023-04-12T03:46:11.885Z,1.13
2023-04-12T03:48:41.392Z,1.25
2023-04-12T03:51:11.970Z,1.10
2023-04-12T03:53:41.479Z,1.42
2023-04-12T03:56:08.159Z,1.13
2023-04-12T03:58:37.786Z,1.30
2023-04-12T04:01:07.399Z,1.20
2023-04-12T04:03:35.007Z,4.85
2023-04-12T04:06:04.918Z,4.05
2023-04-12T04:08:33.199Z,4.05
2023-04-12T04:11:00.839Z,2.40
2023-04-12T04:13:27.332Z,1.80
2023-04-12T04:16:03.772Z,1.50
2023-04-12T04:18:30.602Z,1.40
2023-04-12T04:20:57.115Z,1.17
2023-04-12T04:23:23.615Z,1.08
2023-04-12T04:25:50.185Z,1.35
2023-04-12T04:28:16.973Z,1.02
2023-04-12T04:30:46.132Z,0.90
2023-04-12T04:33:13.339Z,1.13
2023-04-12T04:35:42.685Z,1.30
2023-04-12T04:38:10.173Z,1.27
2023-04-12T04:40:38.160Z,1.25
2023-04-12T04:43:06.459Z,1.10
2023-04-12T04:45:36.356Z,1.23
2023-04-12T04:48:03.603Z,1.25
2023-04-12T04:50:30.388Z,1.30
2023-04-12T04:52:56.820Z,1.25
2023-04-12T04:55:24.841Z,1.08
2023-04-12T04:57:53.600Z,1.13
2023-04-12T05:00:22.359Z,1.25
2023-04-12T05:02:48.782Z,1.42
2023-04-12T05:05:17.961Z,1.17
2023-04-12T05:07:44.482Z,0.93
2023-04-12T05:10:11.512Z,1.48
2023-04-12T05:12:40.180Z,1.33
2023-04-12T05:15:12.036Z,0.98
2023-04-12T05:17:38.910Z,0.90
2023-04-12T05:20:07.847Z,1.70
2023-04-12T05:22:36.895Z,1.58
2023-04-12T05:25:03.891Z,1.30
2023-04-12T05:27:33.948Z,1.35
2023-04-12T05:30:00.418Z,1.40
2023-04-12T05:32:29.002Z,1.98
2023-04-12T05:34:56.091Z,1.95
2023-04-12T05:37:25.139Z,1.30
2023-04-12T05:39:53.854Z,1.60
2023-04-12T05:42:20.398Z,1.52
2023-04-12T05:44:49.765Z,2.13
2023-04-12T05:47:18.834Z,1.60
2023-04-12T05:49:47.612Z,2.00
2023-04-12T05:52:14.132Z,1.50
2023-04-12T05:54:41.611Z,2.10
2023-04-12T05:57:07.959Z,1.98
2023-04-12T05:59:34.379Z,1.67
2023-04-12T06:02:00.779Z,1.80
2023-04-12T06:04:42.142Z,2.00
2023-04-12T06:07:13.458Z,1.48
2023-04-12T06:09:40.752Z,1.55
2023-04-12T06:12:07.157Z,3.22
2023-04-12T06:14:33.563Z,3.42
2023-04-12T06:17:00.004Z,2.15
2023-04-12T06:19:27.178Z,1.90
2023-04-12T06:21:53.721Z,1.52
2023-04-12T06:24:22.532Z,1.08
2023-04-12T06:26:56.508Z,1.63
2023-04-12T06:29:22.985Z,1.50
2023-04-12T06:31:49.451Z,1.33
2023-04-12T06:34:16.152Z,1.80
2023-04-12T06:36:43.634Z,1.80
2023-04-12T06:39:12.022Z,1.77
2023-04-12T06:41:38.467Z,1.65
2023-04-12T06:44:05.069Z,2.13
2023-04-12T06:46:31.770Z,1.58
2023-04-12T06:48:58.447Z,2.33
2023-04-12T06:51:25.291Z,1.92
2023-04-12T06:53:51.784Z,1.92
2023-04-12T06:56:18.933Z,1.75
2023-04-12T06:58:45.667Z,1.63
2023-04-12T07:01:13.550Z,2.10
2023-04-12T07:03:42.636Z,1.60
2023-04-12T07:06:21.902Z,1.75
2023-04-12T07:08:53.661Z,2.35
2023-04-12T07:11:22.546Z,2.13
2023-04-12T07:13:49.786Z,1.90
2023-04-12T07:16:20.845Z,1.85
2023-04-12T07:18:50.341Z,1.80
2023-04-12T07:21:17.456Z,1.80
2023-04-12T07:23:44.806Z,2.17
2023-04-12T07:26:11.245Z,1.50
2023-04-12T07:28:39.087Z,2.53
2023-04-12T07:31:06.913Z,1.38
2023-04-12T07:33:34.841Z,1.30
2023-04-12T07:36:07.284Z,1.10
2023-04-12T07:41:00.460Z,2.50
2023-04-12T07:43:29.522Z,1.90
2023-04-12T07:45:56.372Z,1.30
2023-04-12T07:48:23.331Z,1.13
2023-04-12T07:50:50.708Z,1.15
2023-04-12T07:53:26.141Z,1.30
2023-04-12T07:55:53.162Z,1.42
2023-04-12T07:58:21.055Z,1.45
2023-04-12T08:00:47.713Z,1.02
2023-04-12T08:03:16.228Z,1.63
2023-04-12T08:05:44.137Z,1.55
2023-04-12T08:08:11.701Z,1.50
2023-04-12T08:10:39.553Z,1.67
2023-04-12T08:13:06.518Z,1.35
2023-04-12T08:15:35.306Z,1.60
2023-04-12T08:18:02.507Z,1.30
2023-04-12T08:20:29.262Z,2.03
2023-04-12T08:22:55.786Z,1.30
2023-04-12T08:25:22.529Z,1.08
2023-04-12T08:27:50.366Z,1.05
2023-04-12T08:30:17.681Z,1.90
2023-04-12T08:32:46.996Z,2.03
2023-04-12T08:35:14.849Z,1.80
2023-04-12T08:37:43.828Z,2.63
2023-04-12T08:40:10.593Z,0.90
2023-04-12T08:42:39.767Z,1.00
2023-04-12T08:45:11.711Z,1.27
2023-04-12T08:47:41.127Z,1.20
2023-04-12T08:50:09.787Z,0.90
2023-04-12T08:52:37.880Z,1.13
2023-04-12T08:55:08.128Z,1.13
2023-04-12T08:57:41.219Z,1.35
2023-04-12T09:00:09.175Z,1.10
2023-04-12T09:02:37.424Z,1.63
2023-04-12T09:05:04.907Z,1.33
2023-04-12T09:07:31.411Z,0.95
2023-04-12T09:09:58.668Z,1.38
2023-04-12T09:12:25.564Z,1.20
2023-04-12T09:15:13.770Z,1.10
2023-04-12T09:17:42.162Z,1.60
2023-04-12T09:20:18.049Z,1.15
2023-04-12T09:22:46.348Z,0.85
2023-04-12T09:25:14.410Z,1.17
2023-04-12T09:27:52.486Z,1.15
2023-04-12T09:30:22.767Z,0.90
2023-04-12T09:32:49.411Z,1.40
2023-04-12T09:35:18.718Z,1.02
2023-04-12T09:37:45.179Z,1.17
2023-04-12T09:40:14.176Z,1.15
2023-04-12T09:43:07.499Z,0.82
2023-04-12T09:45:35.761Z,1.20
2023-04-12T09:48:07.204Z,1.70
2023-04-12T09:50:33.909Z,1.33
2023-04-12T09:53:02.701Z,1.40
2023-04-12T09:55:32.107Z,1.02
2023-04-12T09:58:07.333Z,1.27
2023-04-12T10:00:37.068Z,1.13
2023-04-12T10:03:04.490Z,1.40
2023-04-12T10:05:31.339Z,1.38
2023-04-12T10:07:58.318Z,1.58
2023-04-12T10:10:25.072Z,2.00
2023-04-12T10:12:56.607Z,1.52
2023-04-12T10:15:25.525Z,1.50
2023-04-12T10:17:53.906Z,2.22
2023-04-12T10:20:22.993Z,1.88
2023-04-12T10:22:53.192Z,1.60
2023-04-12T10:25:21.494Z,2.10
2023-04-12T10:27:48.963Z,3.20
2023-04-12T10:30:25.576Z,2.47
2023-04-12T10:33:15.075Z,1.75
2023-04-12T10:36:06.986Z,2.78
2023-04-12T10:39:05.605Z,3.90
2023-04-12T10:41:32.014Z,2.60
2023-04-12T10:44:25.981Z,2.60
2023-04-12T10:46:52.618Z,4.97
2023-04-12T10:49:19.369Z,5.65
2023-04-12T10:52:03.787Z,4.30
2023-04-12T10:54:32.587Z,7.28
2023-04-12T10:56:59.063Z,4.63
2023-04-12T10:59:31.422Z,3.28
2023-04-12T11:02:16.697Z,1.38
2023-04-12T11:07:43.519Z,4.00
2023-04-12T11:10:15.183Z,3.30
2023-04-12T11:12:48.060Z,4.25
2023-04-12T11:15:14.732Z,5.85
2023-04-12T11:17:41.312Z,4.20
2023-04-12T11:20:12.534Z,5.32
2023-04-12T11:22:40.541Z,2.17
2023-04-12T11:25:07.431Z,4.93
2023-04-12T11:27:34.542Z,1.83
2023-04-12T11:30:01.561Z,1.55
2023-04-12T11:32:30.255Z,1.33
2023-04-12T11:34:58.287Z,0.98
2023-04-12T11:37:27.892Z,1.27
2023-04-12T11:39:58.645Z,1.10
2023-04-12T11:42:27.463Z,1.10
2023-04-12T11:45:00.297Z,1.10
2023-04-12T11:47:30.238Z,1.35
2023-04-12T11:49:58.400Z,1.80
2023-04-12T11:52:33.398Z,1.77
2023-04-12T11:55:08.814Z,1.63
2023-04-12T11:57:38.604Z,1.42
2023-04-12T12:00:08.470Z,0.90
2023-04-12T12:02:52.084Z,1.52
2023-04-12T12:05:28.046Z,1.77
2023-04-12T12:07:55.172Z,1.05
2023-04-12T12:10:40.020Z,1.35
2023-04-12T12:13:13.102Z,1.35
2023-04-12T12:15:40.179Z,1.38
2023-04-12T12:18:09.842Z,2.65
2023-04-12T12:20:47.709Z,2.90
2023-04-12T12:23:28.273Z,0.90
2023-04-12T12:26:14.203Z,0.95
2023-04-12T12:28:46.419Z,1.15
2023-04-12T12:31:13.131Z,1.05
2023-04-12T12:33:46.807Z,1.20
2023-04-12T12:36:19.015Z,1.05
2023-04-12T12:38:45.488Z,1.30
2023-04-12T12:41:23.393Z,2.03
2023-04-12T12:43:52.889Z,1.80
2023-04-12T12:46:20.145Z,1.92
2023-04-12T12:48:49.865Z,1.60
2023-04-12T12:51:20.379Z,0.73
2023-04-12T12:53:51.408Z,0.98
2023-04-12T12:56:20.251Z,1.40
2023-04-12T12:58:47.037Z,2.47
2023-04-12T13:01:13.653Z,1.48
2023-04-12T13:03:42.770Z,1.70
2023-04-12T13:06:09.420Z,1.58
2023-04-12T13:08:37.277Z,1.33
2023-04-12T13:11:03.943Z,1.10
2023-04-12T13:13:30.423Z,1.17
2023-04-12T13:15:56.943Z,1.40
2023-04-12T13:18:27.945Z,1.35
2023-04-12T13:20:54.604Z,1.08
2023-04-12T13:23:21.244Z,1.77
2023-04-12T13:25:47.757Z,1.70
2023-04-12T13:28:16.844Z,1.55
2023-04-12T13:30:43.595Z,1.40
2023-04-12T13:33:10.085Z,1.17
2023-04-12T13:35:36.451Z,1.30
2023-04-12T13:38:03.135Z,1.02
2023-04-12T13:40:29.962Z,1.50
2023-04-12T13:42:56.371Z,1.60
2023-04-12T13:45:25.827Z,1.42
2023-04-12T13:47:54.377Z,1.33
2023-04-12T13:50:20.775Z,1.42
2023-04-12T13:52:47.171Z,1.08
2023-04-12T13:55:13.654Z,1.95
2023-04-12T13:57:40.178Z,1.88
2023-04-12T14:00:07.403Z,2.40
2023-04-12T14:02:36.600Z,2.60
2023-04-12T14:05:04.000Z,2.20
2023-04-12T14:07:30.871Z,1.40
2023-04-12T14:09:57.826Z,1.10
2023-04-12T14:12:24.368Z,1.20
2023-04-12T14:14:53.349Z,0.90
2023-04-12T14:17:19.961Z,1.50
2023-04-12T14:19:46.435Z,1.05
2023-04-12T14:22:12.973Z,1.52
2023-04-12T14:24:40.030Z,1.27
2023-04-12T14:27:08.899Z,1.95
2023-04-12T14:29:35.279Z,1.75
2023-04-12T14:32:04.476Z,2.13
2023-04-12T14:34:31.128Z,2.83
2023-04-12T14:37:00.341Z,1.52
2023-04-12T14:39:27.706Z,1.45
2023-04-12T14:41:56.915Z,1.20
2023-04-12T14:44:26.275Z,2.97
2023-04-12T14:46:53.271Z,3.03
2023-04-12T14:49:19.890Z,6.43
2023-04-12T14:51:46.318Z,5.40
2023-04-12T14:54:12.866Z,2.53
2023-04-12T14:56:45.483Z,3.72
2023-04-12T14:59:16.415Z,3.35
2023-04-12T15:01:43.861Z,3.67
2023-04-12T15:04:10.663Z,2.28
2023-04-12T15:06:42.358Z,4.75
2023-04-12T15:09:09.759Z,2.50
2023-04-12T15:11:36.627Z,7.47
2023-04-12T15:14:07.598Z,5.13
2023-04-12T15:16:35.170Z,4.68
2023-04-12T15:19:08.105Z,9.05
2023-04-12T15:21:40.311Z,7.93
2023-04-12T15:24:06.760Z,6.90
2023-04-12T15:26:36.210Z,8.25
2023-04-12T15:29:05.860Z,10.60
2023-04-12T15:31:34.687Z,15.70
2023-04-12T15:34:01.220Z,20.67
2023-04-12T15:36:34.069Z,3.70
2023-04-12T15:39:04.704Z,2.75
2023-04-12T15:41:34.706Z,2.70
2023-04-12T15:44:01.249Z,2.90
2023-04-12T15:46:29.932Z,5.10
2023-04-12T15:48:57.639Z,2.80
2023-04-12T15:51:24.403Z,6.38
2023-04-12T15:53:50.986Z,12.43
2023-04-12T15:56:20.096Z,3.08
2023-04-12T15:58:46.545Z,5.72
2023-04-12T16:01:12.986Z,6.30
2023-04-12T16:03:42.890Z,4.20
2023-04-12T16:06:14.806Z,3.90
2023-04-12T16:08:41.873Z,7.78
2023-04-12T16:11:12.157Z,2.63
2023-04-12T16:13:41.719Z,5.90
2023-04-12T16:16:08.254Z,3.65
2023-04-12T16:18:34.784Z,6.22
2023-04-12T16:21:01.206Z,3.53
2023-04-12T16:23:28.071Z,2.92
2023-04-12T16:25:54.834Z,2.13
2023-04-12T16:28:22.545Z,3.30
2023-04-12T16:30:50.132Z,1.30
2023-04-12T16:33:16.861Z,1.08
2023-04-12T16:35:43.380Z,0.60
2023-04-12T16:38:12.046Z,0.63
2023-04-12T16:40:38.890Z,0.70
2023-04-12T16:43:05.630Z,0.90
2023-04-12T16:45:34.431Z,0.73
2023-04-12T16:48:01.157Z,1.33
2023-04-12T16:50:28.812Z,1.50
2023-04-12T16:52:55.658Z,1.10
2023-04-12T16:55:22.090Z,0.40
2023-04-12T16:57:52.960Z,0.50
2023-04-12T17:00:20.604Z,0.55
2023-04-12T17:02:51.232Z,0.60
2023-04-12T17:05:19.880Z,1.05
2023-04-12T17:07:54.121Z,0.90
2023-04-12T17:10:22.533Z,0.77
2023-04-12T17:12:51.849Z,0.88
2023-04-12T17:15:23.302Z,0.95
2023-04-12T17:17:54.256Z,0.80
2023-04-12T17:20:24.655Z,0.82
2023-04-12T17:22:54.904Z,0.80
2023-04-12T17:25:22.909Z,0.73
2023-04-12T17:27:54.346Z,0.80
2023-04-12T17:30:20.803Z,0.47
2023-04-12T17:32:51.138Z,0.60
2023-04-12T17:35:18.459Z,0.47
2023-04-12T17:37:45.693Z,0.50
2023-04-12T17:40:15.431Z,0.70
2023-04-12T17:42:43.329Z,2.80
2023-04-12T17:45:14.558Z,1.60
2023-04-12T17:47:42.514Z,0.60
2023-04-12T17:50:10.461Z,1.85
2023-04-12T17:52:37.489Z,0.60
2023-04-12T17:55:05.223Z,0.68
2023-04-12T17:57:35.014Z,0.40
2023-04-12T18:00:01.856Z,0.93
2023-04-12T18:02:28.590Z,5.80
2023-04-12T18:04:55.586Z,11.00
2023-04-12T18:07:23.010Z,7.35
2023-04-12T18:09:50.558Z,2.53
2023-04-12T18:12:20.251Z,5.38
2023-04-12T18:14:46.887Z,5.32
2023-04-12T18:17:13.264Z,1.60
2023-04-12T18:19:40.054Z,4.15
2023-04-12T18:22:06.710Z,3.25
2023-04-12T18:24:33.264Z,1.67
2023-04-12T18:27:00.170Z,1.63
2023-04-12T18:29:26.594Z,0.75
2023-04-12T18:31:53.197Z,1.02
2023-04-12T18:34:19.911Z,1.02
2023-04-12T18:36:48.634Z,0.70
2023-04-12T18:39:15.175Z,0.73
2023-04-12T18:41:42.004Z,0.60
2023-04-12T18:44:09.448Z,0.93
2023-04-12T18:46:36.345Z,1.85
2023-04-12T18:49:04.495Z,1.20
2023-04-12T18:51:32.676Z,1.92
2023-04-12T18:54:05.353Z,2.60
2023-04-12T18:56:34.920Z,0.85
2023-04-12T18:59:01.476Z,1.63
2023-04-12T19:01:30.560Z,1.20
2023-04-12T19:04:01.250Z,1.10
2023-04-12T19:06:28.761Z,2.58
2023-04-12T19:08:55.509Z,1.90
2023-04-12T19:11:23.219Z,3.03
2023-04-12T19:13:49.717Z,2.58
2023-04-12T19:16:16.573Z,1.95
2023-04-12T19:18:43.014Z,3.55
2023-04-12T19:21:09.856Z,2.13
2023-04-12T19:23:37.096Z,2.50
2023-04-12T19:26:05.528Z,2.50
2023-04-12T19:28:32.095Z,1.98
2023-04-12T19:31:01.456Z,1.70
2023-04-12T19:33:27.875Z,1.92
2023-04-12T19:35:56.209Z,2.03
2023-04-12T19:38:22.767Z,1.50
2023-04-12T19:40:50.913Z,2.20
2023-04-12T19:43:18.605Z,1.63
2023-04-12T19:45:45.384Z,0.90
2023-04-12T19:48:12.962Z,1.42
2023-04-12T19:50:39.768Z,1.42
2023-04-12T19:53:06.304Z,2.08
2023-04-12T19:55:32.766Z,1.35
2023-04-12T19:58:04.125Z,6.18
2023-04-12T20:00:30.538Z,10.83
2023-04-12T20:02:59.410Z,6.60
2023-04-12T20:05:26.864Z,5.43
2023-04-12T20:07:56.031Z,4.70
2023-04-12T20:10:25.094Z,4.63
2023-04-12T20:12:54.084Z,3.88
2023-04-12T20:15:22.852Z,3.33
2023-04-12T20:17:51.920Z,3.80
2023-04-12T20:20:18.644Z,2.60
2023-04-12T20:22:52.265Z,2.30
2023-04-12T20:25:20.868Z,1.95
2023-04-12T20:27:51.937Z,2.65
2023-04-12T20:30:20.997Z,2.03
2023-04-12T20:32:49.217Z,2.20
2023-04-12T20:35:15.817Z,2.20
2023-04-12T20:37:43.303Z,1.77
2023-04-12T20:40:10.178Z,2.70
2023-04-12T20:42:37.023Z,2.15
2023-04-12T20:45:03.782Z,3.30
2023-04-12T20:47:30.454Z,3.08
2023-04-12T20:50:02.531Z,3.38
2023-04-12T20:52:30.274Z,2.00
2023-04-12T20:54:57.299Z,2.58
2023-04-12T20:57:24.187Z,2.75
2023-04-12T20:59:51.674Z,2.17
2023-04-12T21:02:18.179Z,1.92
2023-04-12T21:04:45.194Z,2.20
2023-04-12T21:07:11.922Z,1.83
2023-04-12T21:09:43.580Z,1.73
2023-04-12T21:12:12.579Z,1.73
2023-04-12T21:14:39.169Z,1.40
2023-04-12T21:17:07.199Z,2.25
2023-04-12T21:19:38.943Z,1.20
2023-04-12T21:22:06.971Z,1.08
2023-04-12T21:24:38.181Z,1.30
2023-04-12T21:27:08.297Z,1.05
2023-04-12T21:29:41.156Z,0.80
2023-04-12T21:32:08.864Z,0.90
2023-04-12T21:34:39.157Z,1.00
2023-04-12T21:37:09.021Z,0.40
2023-04-12T21:39:35.460Z,0.60
2023-04-12T21:42:04.593Z,0.60
2023-04-12T21:44:31.030Z,0.70
2023-04-12T21:46:57.410Z,0.60
2023-04-12T21:49:23.808Z,0.30
2023-04-12T21:51:52.148Z,0.45
2023-04-12T21:54:19.831Z,0.40
2023-04-12T21:56:48.767Z,0.32
2023-04-12T21:59:15.219Z,0.63
2023-04-12T22:01:41.887Z,0.40
2023-04-12T22:04:11.418Z,0.47
2023-04-12T22:06:40.400Z,0.40
2023-04-12T22:09:07.057Z,0.20
2023-04-12T22:11:35.947Z,0.30
2023-04-12T22:14:02.414Z,0.38
2023-04-12T22:16:28.925Z,0.55
2023-04-12T22:18:55.738Z,0.40
2023-04-12T22:21:26.453Z,0.32
2023-04-12T22:23:55.136Z,0.43
2023-04-12T22:26:21.651Z,0.30
2023-04-12T22:28:49.785Z,0.50
2023-04-12T22:31:16.450Z,0.30
2023-04-12T22:33:43.718Z,0.55
2023-04-12T22:36:14.129Z,0.63
2023-04-12T22:38:40.621Z,0.38
2023-04-12T22:41:09.661Z,0.32
2023-04-12T22:43:42.061Z,0.45
2023-04-12T22:46:16.189Z,1.00
2023-04-12T22:48:44.007Z,0.90
2023-04-12T22:51:10.965Z,1.05
2023-04-12T22:53:37.737Z,1.73
2023-04-12T22:56:04.415Z,1.92
2023-04-12T22:58:31.302Z,1.70
2023-04-12T23:01:00.346Z,2.00
2023-04-12T23:03:28.310Z,1.70
2023-04-12T23:05:55.072Z,1.70
2023-04-12T23:08:22.050Z,1.20
2023-04-12T23:10:52.281Z,1.05
2023-04-12T23:13:18.667Z,0.70
2023-04-12T23:15:45.274Z,0.90
2023-04-12T23:18:11.863Z,1.02
2023-04-12T23:20:38.586Z,1.27
2023-04-12T23:23:05.661Z,0.93
2023-04-12T23:25:40.819Z,0.90
2023-04-12T23:28:14.202Z,0.93
2023-04-12T23:30:49.403Z,0.90
2023-04-12T23:33:20.366Z,0.52
2023-04-12T23:35:53.713Z,0.52
2023-04-12T23:38:24.675Z,0.47
2023-04-12T23:40:53.892Z,0.40
2023-04-12T23:43:21.924Z,0.75
2023-04-12T23:45:48.892Z,0.63
2023-04-12T23:48:16.520Z,0.30
2023-04-12T23:50:48.652Z,0.32
2023-04-12T23:53:17.083Z,0.47
2023-04-12T23:55:46.118Z,0.50
2023-04-12T23:58:12.642Z,0.50
